createdAt,value
2023-02-21T00:00:13.520Z,1.10
2023-02-21T00:02:59.696Z,1.40
2023-02-21T00:05:45.273Z,1.67
2023-02-21T00:08:33.354Z,1.58
2023-02-21T00:11:18.741Z,1.90
2023-02-21T00:14:04.285Z,1.85
2023-02-21T00:16:49.430Z,1.85
2023-02-21T00:19:35.710Z,1.58
2023-02-21T00:22:24.422Z,1.60
2023-02-21T00:25:10.264Z,1.33
2023-02-21T00:27:59.412Z,1.27
2023-02-21T00:30:47.655Z,1.77
2023-02-21T00:33:32.765Z,1.30
2023-02-21T00:36:18.259Z,1.15
2023-02-21T00:39:03.819Z,1.60
2023-02-21T00:41:48.941Z,1.73
2023-02-21T00:44:40.275Z,1.25
2023-02-21T00:47:26.421Z,1.33
2023-02-21T00:50:11.558Z,1.58
2023-02-21T00:52:56.829Z,1.58
2023-02-21T00:55:44.218Z,1.02
2023-02-21T00:58:29.735Z,1.70
2023-02-21T01:01:18.030Z,1.90
2023-02-21T01:04:06.965Z,1.13
2023-02-21T01:06:53.154Z,1.83
2023-02-21T01:09:42.010Z,1.48
2023-02-21T01:12:31.802Z,1.35
2023-02-21T01:15:20.135Z,1.33
2023-02-21T01:18:05.604Z,1.63
2023-02-21T01:20:50.821Z,1.95
2023-02-21T01:23:36.578Z,1.20
2023-02-21T01:26:22.707Z,1.25
2023-02-21T01:29:09.502Z,2.03
2023-02-21T01:31:58.222Z,1.67
2023-02-21T01:34:46.280Z,1.45
2023-02-21T01:37:34.512Z,2.05
2023-02-21T01:40:23.257Z,2.13
2023-02-21T01:43:08.313Z,1.13
2023-02-21T01:46:06.312Z,1.52
2023-02-21T01:48:53.911Z,1.92
2023-02-21T01:51:44.881Z,1.55
2023-02-21T01:54:30.881Z,1.52
2023-02-21T01:57:18.133Z,1.10
2023-02-21T02:00:03.801Z,1.48
2023-02-21T02:03:04.308Z,1.73
2023-02-21T02:05:53.279Z,1.48
2023-02-21T02:08:40.650Z,2.00
2023-02-21T02:11:34.244Z,1.83
2023-02-21T02:14:10.552Z,1.55
2023-02-21T02:16:49.698Z,1.73
2023-02-21T02:19:59.275Z,1.83
2023-02-21T02:22:35.569Z,1.20
2023-02-21T02:25:21.089Z,1.30
2023-02-21T02:28:07.022Z,2.03
2023-02-21T02:30:47.616Z,1.80
2023-02-21T02:33:46.161Z,1.48
2023-02-21T02:36:24.484Z,1.52
2023-02-21T02:39:00.993Z,1.45
2023-02-21T02:41:35.362Z,1.60
2023-02-21T02:44:16.023Z,1.80
2023-02-21T02:46:48.038Z,1.45
2023-02-21T02:49:27.019Z,1.90
2023-02-21T02:52:06.372Z,1.55
2023-02-21T02:54:38.601Z,1.55
2023-02-21T02:57:15.019Z,1.60
2023-02-21T02:59:49.860Z,1.77
2023-02-21T03:02:28.971Z,1.27
2023-02-21T03:05:02.830Z,2.10
2023-02-21T03:07:39.605Z,1.50
2023-02-21T03:10:21.759Z,1.98
2023-02-21T03:13:02.476Z,1.52
2023-02-21T03:15:50.656Z,1.52
2023-02-21T03:18:41.643Z,1.73
2023-02-21T03:21:14.726Z,1.77
2023-02-21T03:23:44.238Z,1.80
2023-02-21T03:26:15.664Z,2.20
2023-02-21T03:28:46.720Z,1.80
2023-02-21T03:31:17.102Z,1.70
2023-02-21T03:33:50.510Z,1.80
2023-02-21T03:36:32.146Z,1.60
2023-02-21T03:39:06.498Z,1.40
2023-02-21T03:41:36.693Z,1.48
2023-02-21T03:44:11.558Z,2.10
2023-02-21T03:46:47.473Z,1.45
2023-02-21T03:49:18.352Z,1.30
2023-02-21T03:51:51.497Z,1.75
2023-02-21T03:54:21.311Z,1.60
2023-02-21T03:56:51.629Z,0.90
2023-02-21T03:59:25.883Z,1.42
2023-02-21T04:01:56.467Z,1.33
2023-02-21T04:04:24.810Z,1.52
2023-02-21T04:06:55.200Z,1.95
2023-02-21T04:09:26.411Z,1.30
2023-02-21T04:11:54.415Z,1.38
2023-02-21T04:14:24.196Z,1.25
2023-02-21T04:16:52.377Z,1.50
2023-02-21T04:19:25.729Z,1.42
2023-02-21T04:21:59.033Z,2.20
2023-02-21T04:24:29.745Z,1.58
2023-02-21T04:26:57.013Z,1.80
2023-02-21T04:29:24.476Z,1.92
2023-02-21T04:31:56.190Z,1.40
2023-02-21T04:34:26.317Z,1.40
2023-02-21T04:36:56.466Z,1.52
2023-02-21T04:39:27.136Z,1.73
2023-02-21T04:41:57.059Z,1.65
2023-02-21T04:44:33.048Z,1.27
2023-02-21T04:47:08.428Z,2.05
2023-02-21T04:49:38.400Z,1.45
2023-02-21T04:52:14.482Z,1.42
2023-02-21T04:54:47.495Z,1.70
2023-02-21T04:57:18.552Z,1.55
2023-02-21T04:59:51.872Z,1.10
2023-02-21T05:02:21.675Z,1.30
2023-02-21T05:04:51.314Z,1.35
2023-02-21T05:07:21.777Z,1.70
2023-02-21T05:09:52.175Z,1.90
2023-02-21T05:12:22.387Z,1.90
2023-02-21T05:14:52.942Z,1.42
2023-02-21T05:17:23.190Z,1.45
2023-02-21T05:19:50.305Z,1.90
2023-02-21T05:22:20.832Z,0.90
2023-02-21T05:24:56.127Z,1.70
2023-02-21T05:27:26.844Z,1.48
2023-02-21T05:30:00.314Z,2.00
2023-02-21T05:32:33.327Z,1.55
2023-02-21T05:35:06.147Z,1.50
2023-02-21T05:37:39.278Z,1.38
2023-02-21T05:40:07.203Z,1.70
2023-02-21T05:42:37.842Z,2.20
2023-02-21T05:45:10.693Z,1.70
2023-02-21T05:47:46.715Z,1.88
2023-02-21T05:50:16.908Z,1.90
2023-02-21T05:52:44.438Z,2.08
2023-02-21T05:55:17.466Z,1.92
2023-02-21T05:57:48.448Z,1.70
2023-02-21T06:00:24.714Z,2.08
2023-02-21T06:02:58.850Z,1.80
2023-02-21T07:04:25.575Z,1.52
2023-02-21T07:06:57.955Z,1.70
2023-02-21T07:09:25.048Z,2.38
2023-02-21T07:11:55.595Z,1.92
2023-02-21T07:14:22.490Z,1.10
2023-02-21T07:16:51.495Z,1.77
2023-02-21T07:19:21.786Z,3.08
2023-02-21T07:21:51.800Z,1.65
2023-02-21T07:24:28.000Z,1.38
2023-02-21T07:26:59.853Z,2.00
2023-02-21T07:29:30.528Z,2.10
2023-02-21T07:31:59.663Z,2.33
2023-02-21T07:34:30.910Z,1.60
2023-02-21T07:36:59.491Z,1.95
2023-02-21T07:39:29.939Z,1.90
2023-02-21T07:42:00.643Z,2.20
2023-02-21T07:44:30.396Z,2.20
2023-02-21T07:47:00.840Z,1.80
2023-02-21T07:49:28.594Z,1.70
2023-02-21T07:52:03.362Z,2.13
2023-02-21T07:54:33.877Z,2.10
2023-02-21T07:57:06.038Z,3.72
2023-02-21T07:59:35.966Z,2.53
2023-02-21T08:02:06.973Z,3.13
2023-02-21T08:04:39.851Z,2.20
2023-02-21T08:07:10.187Z,2.15
2023-02-21T08:09:41.069Z,1.95
2023-02-21T08:12:14.870Z,1.95
2023-02-21T08:14:44.589Z,2.20
2023-02-21T08:17:16.109Z,1.95
2023-02-21T08:19:44.273Z,0.68
2023-02-21T08:22:17.050Z,2.10
2023-02-21T08:24:53.433Z,2.25
2023-02-21T08:27:29.903Z,2.58
2023-02-21T08:30:03.450Z,2.53
2023-02-21T08:32:38.313Z,2.92
2023-02-21T08:35:09.945Z,2.50
2023-02-21T08:37:57.515Z,3.15
2023-02-21T08:40:25.124Z,2.70
2023-02-21T08:42:53.428Z,2.72
2023-02-21T08:45:24.680Z,2.08
2023-02-21T08:47:55.301Z,2.22
2023-02-21T08:50:25.386Z,2.80
2023-02-21T08:52:58.790Z,2.33
2023-02-21T08:55:26.437Z,2.53
2023-02-21T08:58:02.718Z,2.20
2023-02-21T09:00:35.047Z,2.25
2023-02-21T09:03:08.597Z,2.08
2023-02-21T09:05:42.021Z,2.50
2023-02-21T09:08:14.791Z,2.58
2023-02-21T09:10:48.007Z,2.45
2023-02-21T09:13:23.529Z,2.25
2023-02-21T09:16:00.702Z,2.08
2023-02-21T09:18:37.785Z,2.47
2023-02-21T09:21:09.738Z,2.67
2023-02-21T09:23:42.996Z,1.50
2023-02-21T09:26:13.030Z,2.45
2023-02-21T09:28:45.159Z,2.33
2023-02-21T09:31:18.488Z,2.83
2023-02-21T09:33:47.354Z,2.15
2023-02-21T09:36:19.154Z,1.98
2023-02-21T09:38:51.412Z,2.50
2023-02-21T09:41:19.723Z,2.60
2023-02-21T09:43:52.557Z,2.17
2023-02-21T09:46:41.209Z,1.13
2023-02-21T09:49:18.253Z,2.42
2023-02-21T09:51:50.044Z,2.35
2023-02-21T09:54:22.313Z,2.53
2023-02-21T09:56:49.912Z,2.53
2023-02-21T09:59:20.824Z,1.85
2023-02-21T10:02:01.280Z,2.03
2023-02-21T10:04:50.799Z,1.85
2023-02-21T10:07:25.800Z,2.72
2023-02-21T10:10:02.744Z,2.67
2023-02-21T10:12:42.284Z,2.83
2023-02-21T10:15:18.608Z,2.15
2023-02-21T10:18:08.654Z,2.78
2023-02-21T10:20:41.777Z,2.05
2023-02-21T10:23:27.431Z,3.05
2023-02-21T10:26:05.252Z,2.45
2023-02-21T10:28:40.375Z,2.45
2023-02-21T10:31:15.202Z,2.17
2023-02-21T10:33:46.069Z,1.98
2023-02-21T10:36:15.178Z,1.80
2023-02-21T10:38:54.571Z,2.25
2023-02-21T10:41:37.202Z,2.35
2023-02-21T10:44:05.981Z,2.20
2023-02-21T10:46:44.060Z,2.70
2023-02-21T10:49:25.369Z,2.30
2023-02-21T10:52:22.267Z,1.88
2023-02-21T10:55:04.790Z,1.73
2023-02-21T10:57:43.391Z,1.88
2023-02-21T11:00:32.828Z,2.53
2023-02-21T11:03:07.282Z,1.95
2023-02-21T11:05:38.966Z,2.03
2023-02-21T11:08:18.565Z,2.28
2023-02-21T11:10:55.223Z,2.20
2023-02-21T11:13:27.477Z,1.88
2023-02-21T11:16:17.867Z,2.30
2023-02-21T11:18:50.272Z,1.30
2023-02-21T11:21:24.750Z,1.17
2023-02-21T11:24:05.765Z,2.28
2023-02-21T11:26:38.962Z,2.38
2023-02-21T11:29:12.967Z,2.08
2023-02-21T11:31:43.886Z,2.35
2023-02-21T11:34:19.130Z,1.40
2023-02-21T11:36:58.803Z,1.98
2023-02-21T11:39:35.887Z,1.70
2023-02-21T11:42:07.706Z,1.45
2023-02-21T11:44:42.274Z,1.90
2023-02-21T11:47:21.696Z,1.67
2023-02-21T11:49:51.884Z,1.73
2023-02-21T11:52:45.972Z,1.52
2023-02-21T11:55:17.789Z,1.90
2023-02-21T11:57:50.216Z,1.65
2023-02-21T12:00:37.329Z,2.10
2023-02-21T12:03:10.759Z,1.38
2023-02-21T12:05:43.765Z,1.15
2023-02-21T12:08:32.929Z,1.25
2023-02-21T12:11:09.109Z,1.85
2023-02-21T12:13:53.277Z,1.85
2023-02-21T12:16:43.299Z,0.93
2023-02-21T12:19:34.362Z,1.30
2023-02-21T12:22:06.361Z,1.83
2023-02-21T12:24:34.794Z,1.58
2023-02-21T12:27:12.386Z,0.95
2023-02-21T12:29:40.219Z,1.73
2023-02-21T12:32:28.664Z,1.77
2023-02-21T12:35:02.825Z,1.80
2023-02-21T12:37:48.125Z,1.10
2023-02-21T12:40:26.631Z,1.17
2023-02-21T12:43:11.521Z,1.20
2023-02-21T12:45:43.270Z,1.23
2023-02-21T12:48:30.140Z,1.38
2023-02-21T12:51:05.415Z,1.20
2023-02-21T12:53:45.167Z,1.08
2023-02-21T12:56:24.307Z,1.25
2023-02-21T12:59:09.650Z,1.48
2023-02-21T13:02:00.497Z,1.45
2023-02-21T13:04:33.849Z,1.38
2023-02-21T13:07:13.152Z,1.52
2023-02-21T13:09:52.971Z,1.00
2023-02-21T13:12:29.979Z,1.48
2023-02-21T13:15:05.525Z,1.20
2023-02-21T13:17:36.891Z,1.65
2023-02-21T13:20:18.578Z,1.33
2023-02-21T13:23:23.064Z,1.73
2023-02-21T13:26:05.892Z,1.52
2023-02-21T13:28:45.818Z,1.30
2023-02-21T13:31:24.405Z,1.35
2023-02-21T13:33:55.896Z,1.70
2023-02-21T13:36:26.755Z,1.10
2023-02-21T13:39:04.041Z,1.65
2023-02-21T13:41:42.642Z,1.42
2023-02-21T13:44:18.401Z,1.17
2023-02-21T13:46:49.254Z,1.45
2023-02-21T13:49:34.603Z,1.73
2023-02-21T13:52:19.715Z,1.63
2023-02-21T13:55:08.392Z,1.25
2023-02-21T13:57:40.552Z,1.08
2023-02-21T14:00:28.983Z,1.13
2023-02-21T14:02:56.402Z,0.75
2023-02-21T14:05:28.141Z,1.75
2023-02-21T14:07:59.214Z,1.58
2023-02-21T14:10:36.416Z,1.30
2023-02-21T14:13:15.631Z,1.30
2023-02-21T14:15:50.066Z,1.35
2023-02-21T14:18:24.355Z,2.10
2023-02-21T14:20:55.810Z,1.73
2023-02-21T14:23:32.776Z,1.42
2023-02-21T14:26:06.052Z,1.27
2023-02-21T14:29:01.327Z,1.50
2023-02-21T14:31:48.766Z,1.50
2023-02-21T14:34:22.500Z,1.35
2023-02-21T14:36:54.696Z,2.13
2023-02-21T14:39:23.573Z,1.77
2023-02-21T14:41:52.699Z,1.85
2023-02-21T14:44:34.474Z,1.60
2023-02-21T14:47:22.598Z,1.58
2023-02-21T14:49:56.065Z,1.40
2023-02-21T14:52:32.596Z,1.40
2023-02-21T14:55:02.978Z,1.38
2023-02-21T14:57:45.430Z,1.27
2023-02-21T15:00:36.280Z,1.33
2023-02-21T15:03:16.295Z,1.42
2023-02-21T15:06:09.564Z,1.45
2023-02-21T15:08:56.477Z,0.98
2023-02-21T15:11:28.634Z,0.70
2023-02-21T15:14:11.792Z,1.17
2023-02-21T15:16:44.810Z,1.15
2023-02-21T15:19:41.720Z,1.52
2023-02-21T15:22:20.138Z,1.20
2023-02-21T15:25:09.181Z,0.93
2023-02-21T15:27:54.377Z,0.90
2023-02-21T15:30:30.511Z,1.05
2023-02-21T15:33:03.329Z,1.02
2023-02-21T15:35:36.190Z,0.93
2023-02-21T15:38:08.149Z,1.00
2023-02-21T15:40:39.178Z,0.95
2023-02-21T15:43:10.374Z,1.00
2023-02-21T15:45:50.867Z,1.50
2023-02-21T15:48:18.772Z,1.15
2023-02-21T15:50:54.577Z,1.10
2023-02-21T15:53:27.513Z,1.20
2023-02-21T15:55:55.408Z,1.05
2023-02-21T15:58:27.040Z,0.88
2023-02-21T16:01:07.787Z,1.10
2023-02-21T16:03:50.088Z,1.23
2023-02-21T16:06:30.614Z,1.30
2023-02-21T16:09:05.155Z,0.93
2023-02-21T16:11:44.705Z,0.90
2023-02-21T16:14:21.015Z,1.05
2023-02-21T16:16:54.416Z,1.00
2023-02-21T16:19:26.563Z,0.80
2023-02-21T16:22:16.858Z,1.45
2023-02-21T16:24:45.253Z,0.90
2023-02-21T16:27:16.680Z,1.27
2023-02-21T16:29:52.629Z,1.15
2023-02-21T16:32:22.228Z,0.70
2023-02-21T16:34:52.321Z,1.30
2023-02-21T16:37:26.326Z,1.00
2023-02-21T16:40:01.051Z,1.20
2023-02-21T16:42:31.181Z,0.90
2023-02-21T16:45:03.855Z,0.90
2023-02-21T16:47:30.925Z,0.90
2023-02-21T16:50:01.617Z,0.93
2023-02-21T16:52:30.204Z,0.98
2023-02-21T16:55:00.812Z,1.10
2023-02-21T16:57:28.925Z,1.13
2023-02-21T17:00:00.015Z,1.00
2023-02-21T17:02:31.129Z,0.88
2023-02-21T17:04:59.200Z,1.08
2023-02-21T17:07:26.358Z,0.70
2023-02-21T17:09:58.878Z,0.98
2023-02-21T17:12:25.910Z,1.00
2023-02-21T17:14:56.336Z,0.80
2023-02-21T17:17:29.094Z,0.90
2023-02-21T17:19:57.198Z,0.90
2023-02-21T17:22:24.377Z,0.75
2023-02-21T17:24:55.250Z,0.82
2023-02-21T17:27:25.277Z,0.82
2023-02-21T17:29:58.321Z,1.42
2023-02-21T17:32:32.274Z,1.80
2023-02-21T17:35:00.287Z,1.58
2023-02-21T17:37:30.063Z,1.55
2023-02-21T17:40:00.238Z,1.52
2023-02-21T17:42:33.418Z,1.15
2023-02-21T17:45:05.874Z,1.15
2023-02-21T17:47:36.841Z,1.10
2023-02-21T17:50:08.114Z,0.95
2023-02-21T17:52:41.217Z,1.27
2023-02-21T17:55:13.735Z,1.13
2023-02-21T17:57:46.561Z,1.25
2023-02-21T18:00:34.230Z,1.05
2023-02-21T18:03:06.907Z,0.90
2023-02-21T18:05:35.355Z,0.73
2023-02-21T18:08:03.976Z,0.88
2023-02-21T18:10:31.141Z,1.00
2023-02-21T18:13:07.346Z,1.00
2023-02-21T18:15:39.540Z,1.33
2023-02-21T18:18:14.025Z,1.13
2023-02-21T18:20:41.579Z,0.77
2023-02-21T18:23:12.306Z,0.80
2023-02-21T18:25:44.149Z,1.15
2023-02-21T18:28:14.349Z,0.98
2023-02-21T18:30:47.666Z,1.00
2023-02-21T18:33:21.865Z,0.90
2023-02-21T18:35:54.937Z,1.02
2023-02-21T18:38:26.348Z,1.00
2023-02-21T18:40:58.309Z,0.93
2023-02-21T18:43:32.528Z,0.98
2023-02-21T18:46:06.126Z,1.13
2023-02-21T18:48:36.385Z,1.52
2023-02-21T18:51:03.898Z,1.20
2023-02-21T18:53:34.656Z,1.00
2023-02-21T18:56:06.479Z,1.00
2023-02-21T18:58:33.529Z,1.10
2023-02-21T19:01:03.703Z,0.98
2023-02-21T19:03:35.130Z,1.27
2023-02-21T19:06:04.794Z,0.95
2023-02-21T19:08:31.876Z,1.13
2023-02-21T19:10:59.651Z,0.88
2023-02-21T19:13:29.746Z,0.77
2023-02-21T19:16:02.532Z,1.35
2023-02-21T19:18:31.415Z,0.95
2023-02-21T19:21:01.308Z,1.27
2023-02-21T19:23:29.329Z,1.42
2023-02-21T19:26:00.249Z,1.38
2023-02-21T19:28:33.811Z,1.23
2023-02-21T19:31:03.907Z,1.00
2023-02-21T19:33:31.122Z,1.15
2023-02-21T19:36:08.986Z,1.15
2023-02-21T19:38:40.176Z,1.17
2023-02-21T19:41:13.309Z,1.15
2023-02-21T19:43:43.847Z,1.20
2023-02-21T19:46:22.715Z,1.30
2023-02-21T19:48:50.867Z,1.50
2023-02-21T19:51:26.748Z,1.23
2023-02-21T19:53:53.885Z,1.05
2023-02-21T19:56:25.648Z,1.60
2023-02-21T19:58:54.571Z,1.13
2023-02-21T20:01:30.098Z,1.27
2023-02-21T20:04:02.956Z,1.30
2023-02-21T20:06:34.800Z,1.25
2023-02-21T20:09:12.456Z,1.40
2023-02-21T20:11:43.119Z,1.20
2023-02-21T20:14:13.865Z,1.10
2023-02-21T20:16:48.057Z,1.00
2023-02-21T20:19:16.366Z,0.95
2023-02-21T20:21:49.236Z,1.20
2023-02-21T20:24:16.739Z,1.30
2023-02-21T20:26:51.584Z,1.20
2023-02-21T20:29:23.206Z,1.13
2023-02-21T20:31:56.698Z,1.40
2023-02-21T20:34:27.424Z,1.23
2023-02-21T20:37:00.661Z,1.48
2023-02-21T20:39:32.597Z,1.30
2023-02-21T20:42:01.129Z,1.10
2023-02-21T20:44:35.029Z,1.17
2023-02-21T20:47:06.141Z,1.48
2023-02-21T20:49:36.864Z,1.48
2023-02-21T20:52:09.308Z,0.98
2023-02-21T20:54:39.347Z,1.10
2023-02-21T20:57:15.251Z,1.10
2023-02-21T20:59:45.729Z,1.08
2023-02-21T21:02:22.773Z,1.20
2023-02-21T21:04:50.192Z,1.27
2023-02-21T21:07:23.335Z,1.23
2023-02-21T21:09:53.998Z,1.27
2023-02-21T21:12:30.447Z,1.30
2023-02-21T21:15:01.090Z,1.20
2023-02-21T21:17:31.794Z,1.30
2023-02-21T21:22:43.216Z,0.90
2023-02-21T21:25:16.035Z,0.80
2023-02-21T21:27:49.610Z,1.05
2023-02-21T21:30:26.731Z,1.10
2023-02-21T21:33:01.093Z,0.90
2023-02-21T21:35:31.436Z,1.00
2023-02-21T21:38:00.416Z,1.33
2023-02-21T21:40:29.595Z,1.15
2023-02-21T21:43:00.089Z,1.00
2023-02-21T21:45:30.180Z,1.13
2023-02-21T21:48:03.580Z,0.75
2023-02-21T21:50:31.145Z,0.93
2023-02-21T21:53:04.000Z,0.88
2023-02-21T21:55:35.947Z,0.98
2023-02-21T21:58:10.887Z,1.00
2023-02-21T22:00:46.549Z,0.90
2023-02-21T22:03:18.881Z,1.02
2023-02-21T22:05:53.147Z,1.00
2023-02-21T22:08:26.130Z,0.77
2023-02-21T22:11:00.531Z,0.80
2023-02-21T22:13:32.368Z,1.08
2023-02-21T22:15:59.366Z,1.10
2023-02-21T22:18:29.302Z,0.60
2023-02-21T22:21:02.289Z,1.10
2023-02-21T22:23:36.595Z,1.00
2023-02-21T22:26:09.814Z,0.90
2023-02-21T22:28:42.326Z,0.77
2023-02-21T22:31:12.785Z,0.77
2023-02-21T22:33:43.088Z,0.82
2023-02-21T22:36:14.176Z,0.90
2023-02-21T22:38:45.459Z,0.93
2023-02-21T22:41:24.895Z,0.73
2023-02-21T22:43:53.403Z,0.80
2023-02-21T22:46:28.189Z,0.80
2023-02-21T22:48:59.419Z,0.80
2023-02-21T22:51:28.819Z,0.75
2023-02-21T22:53:56.330Z,0.90
2023-02-21T22:56:24.684Z,0.95
2023-02-21T22:59:05.831Z,0.80
2023-02-21T23:01:36.505Z,0.90
2023-02-21T23:04:38.272Z,0.80
2023-02-21T23:07:11.656Z,1.00
2023-02-21T23:09:39.605Z,1.00
2023-02-21T23:12:11.246Z,0.80
2023-02-21T23:14:43.951Z,0.90
2023-02-21T23:17:14.891Z,1.00
2023-02-21T23:19:47.291Z,0.80
2023-02-21T23:22:16.384Z,0.85
2023-02-21T23:24:46.847Z,0.90
2023-02-21T23:27:18.569Z,1.00
2023-02-21T23:29:49.212Z,1.00
2023-02-21T23:32:23.107Z,1.10
2023-02-21T23:34:51.114Z,1.05
2023-02-21T23:37:24.990Z,0.98
2023-02-21T23:39:57.613Z,0.82
2023-02-21T23:42:31.779Z,1.05
2023-02-21T23:45:04.688Z,1.00
2023-02-21T23:47:38.003Z,0.80
2023-02-21T23:50:17.756Z,1.00
2023-02-21T23:52:56.542Z,0.95
2023-02-21T23:55:27.301Z,0.80
2023-02-21T23:57:54.854Z,1.20
